Time;durP1;ratioP1;P1;durP2;ratioP2;P2;SDS_P1;SDS_P2;PMS_P1;PMS_P2;Temp;Humidity;BMP_temperature;BMP_pressure;BME280_temperature;BME280_humidity;BME280_pressure;Samples;Min_cycle;Max_cycle;Signal;HPM_P1;HPM_P2
2024/01/08 00:00:52;;;;;;;85.77;24.73;;;-8.10;1.00;;;;;;8240895;28;20199;-79
2024/01/08 00:04:52;;;;;;;30.90;12.83;;;-8.00;1.00;;;;;;8244949;28;20319;-79
2024/01/08 00:08:53;;;;;;;18.57;10.37;;;-8.00;1.00;;;;;;8228484;28;20362;-79
2024/01/08 00:12:54;;;;;;;38.00;15.23;;;-8.10;1.00;;;;;;8232521;28;20282;-79
2024/01/08 00:16:54;;;;;;;49.50;18.07;;;-8.10;1.00;;;;;;8253712;28;20269;-80
2024/01/08 00:20:56;;;;;;;23.00;11.03;;;-8.10;1.00;;;;;;8229111;28;20227;-80
2024/01/08 00:24:57;;;;;;;22.90;10.50;;;-8.10;1.00;;;;;;8230200;28;20184;-79
2024/01/08 00:29:01;;;;;;;36.13;13.77;;;-8.00;1.00;;;;;;8227320;28;20191;-79
2024/01/08 00:33:02;;;;;;;35.67;14.70;;;-7.90;1.00;;;;;;8234653;28;20187;-80
2024/01/08 00:37:03;;;;;;;25.00;12.47;;;-7.90;1.00;;;;;;8232504;28;20191;-79
2024/01/08 00:41:04;;;;;;;46.23;16.20;;;-7.90;1.00;;;;;;8234219;28;20215;-79
2024/01/08 00:45:06;;;;;;;25.77;12.57;;;-7.90;1.00;;;;;;8230478;28;20191;-79
2024/01/08 00:49:07;;;;;;;58.30;20.00;;;-8.00;1.00;;;;;;8244550;28;20208;-79
2024/01/08 00:53:09;;;;;;;42.53;14.90;;;-8.00;1.00;;;;;;8228288;28;20191;-80
2024/01/08 00:57:10;;;;;;;17.37;10.77;;;-8.00;1.00;;;;;;8229467;28;20191;-78
2024/01/08 01:01:11;;;;;;;29.67;12.57;;;-7.90;1.00;;;;;;8226446;28;20208;-80
2024/01/08 01:05:12;;;;;;;42.97;16.57;;;-7.90;1.00;;;;;;8229685;28;20192;-79
2024/01/08 01:09:13;;;;;;;24.63;11.90;;;-7.90;1.00;;;;;;8246776;28;20191;-78
2024/01/08 01:13:14;;;;;;;44.80;17.03;;;-8.00;1.00;;;;;;8236745;28;20183;-79
2024/01/08 01:17:15;;;;;;;46.87;18.70;;;-8.00;1.00;;;;;;8271336;28;20212;-81
2024/01/08 01:21:22;;;;;;;38.57;15.17;;;-8.00;1.00;;;;;;8270936;28;20200;-81
2024/01/08 01:25:23;;;;;;;34.73;14.10;;;-7.90;1.00;;;;;;8264130;28;20192;-80
2024/01/08 01:29:23;;;;;;;23.27;11.13;;;-7.90;1.00;;;;;;8242884;28;20199;-80
2024/01/08 01:33:24;;;;;;;22.77;11.77;;;-7.90;1.00;;;;;;8250340;28;20191;-80
2024/01/08 01:37:33;;;;;;;22.23;11.67;;;-7.90;1.00;;;;;;8229292;28;20599;-81
2024/01/08 01:41:33;;;;;;;21.67;12.00;;;-7.90;1.00;;;;;;8256647;28;20730;-83
2024/01/08 01:45:34;;;;;;;28.57;12.57;;;-7.90;1.00;;;;;;8262403;28;20179;-82
2024/01/08 01:49:39;;;;;;;24.23;12.53;;;-7.90;1.00;;;;;;8277197;28;20184;-82
2024/01/08 01:53:43;;;;;;;19.13;10.30;;;-7.90;1.00;;;;;;8264188;28;20184;-83
2024/01/08 01:57:47;;;;;;;35.07;14.93;;;-7.90;1.00;;;;;;8267957;28;20208;-82
2024/01/08 02:01:49;;;;;;;35.33;16.30;;;-7.90;1.00;;;;;;8257250;28;20223;-83
2024/01/08 02:05:52;;;;;;;27.00;12.67;;;-7.90;1.00;;;;;;8256480;28;20307;-81
2024/01/08 02:09:54;;;;;;;21.43;11.77;;;-7.90;1.00;;;;;;8266404;28;20203;-83
2024/01/08 02:13:55;;;;;;;20.57;11.63;;;-7.90;1.00;;;;;;8255076;28;20188;-82
2024/01/08 02:17:56;;;;;;;30.27;14.30;;;-7.90;1.00;;;;;;8246999;28;20211;-82
2024/01/08 02:21:56;;;;;;;36.47;15.20;;;-7.90;1.00;;;;;;8256511;28;20335;-82
2024/01/08 02:25:58;;;;;;;40.60;16.80;;;-7.90;1.00;;;;;;8254905;28;20184;-82
2024/01/08 02:29:59;;;;;;;33.90;14.40;;;-8.00;1.00;;;;;;8265403;28;20535;-82
2024/01/08 02:33:59;;;;;;;54.47;21.03;;;-8.00;1.00;;;;;;8258613;28;20207;-82
2024/01/08 02:38:03;;;;;;;60.93;21.90;;;-8.00;1.00;;;;;;8259544;28;20220;-83
2024/01/08 02:42:07;;;;;;;44.73;16.57;;;-8.10;1.00;;;;;;8264749;28;20180;-82
2024/01/08 02:46:09;;;;;;;21.43;11.97;;;-8.20;1.00;;;;;;8261473;28;20195;-83
2024/01/08 02:50:13;;;;;;;37.53;15.17;;;-8.40;1.00;;;;;;8260547;28;20199;-83
2024/01/08 02:54:20;;;;;;;30.20;14.17;;;-8.30;1.00;;;;;;8256754;28;20192;-82
2024/01/08 02:58:21;;;;;;;36.10;15.93;;;-8.30;1.00;;;;;;8261991;28;20219;-82
2024/01/08 03:02:29;;;;;;;23.60;11.53;;;-8.30;1.00;;;;;;8274683;28;20195;-81
2024/01/08 03:06:30;;;;;;;24.57;11.73;;;-8.30;1.00;;;;;;8244137;28;20219;-82
2024/01/08 03:10:31;;;;;;;28.90;12.97;;;-8.20;1.00;;;;;;8274688;28;20333;-82
2024/01/08 03:14:35;;;;;;;42.47;17.30;;;-8.20;1.00;;;;;;8260014;28;20214;-81
2024/01/08 03:18:38;;;;;;;32.40;14.33;;;-8.20;1.00;;;;;;8265334;28;20276;-81
2024/01/08 03:22:40;;;;;;;25.23;12.70;;;-8.20;1.00;;;;;;8261540;28;20191;-82
2024/01/08 03:26:44;;;;;;;36.40;16.00;;;-8.20;1.00;;;;;;8250047;28;20212;-83
2024/01/08 03:30:45;;;;;;;31.73;16.10;;;-8.20;1.00;;;;;;8241852;28;20227;-82
2024/01/08 03:34:46;;;;;;;26.17;12.77;;;-8.20;1.00;;;;;;8283561;28;20191;-81
2024/01/08 03:38:49;;;;;;;25.23;13.40;;;-8.10;1.00;;;;;;8273865;28;20231;-81
2024/01/08 03:42:50;;;;;;;31.30;15.13;;;-8.30;1.00;;;;;;8278223;28;20187;-81
2024/01/08 03:46:51;;;;;;;28.43;14.53;;;-8.40;1.00;;;;;;8279702;28;20202;-82
2024/01/08 03:50:52;;;;;;;22.33;11.67;;;-8.40;1.00;;;;;;8270030;28;20203;-82
2024/01/08 03:54:56;;;;;;;22.07;12.00;;;-8.40;1.00;;;;;;8256262;28;20187;-82
2024/01/08 03:59:06;;;;;;;26.23;13.67;;;-8.40;1.00;;;;;;8264703;28;20212;-82
2024/01/08 04:03:07;;;;;;;26.70;13.77;;;-8.40;1.00;;;;;;8264148;28;20196;-82
2024/01/08 04:07:09;;;;;;;30.33;14.20;;;-8.40;1.00;;;;;;8280081;28;20193;-81
2024/01/08 04:11:10;;;;;;;24.07;12.03;;;-8.40;1.00;;;;;;8263193;28;20519;-82
2024/01/08 04:15:11;;;;;;;18.50;11.17;;;-8.40;1.00;;;;;;8279298;28;20241;-81
2024/01/08 04:19:12;;;;;;;24.60;11.87;;;-8.50;1.00;;;;;;8248217;28;20218;-82
2024/01/08 04:23:13;;;;;;;23.27;12.07;;;-8.60;1.00;;;;;;8239970;28;20191;-83
2024/01/08 04:27:13;;;;;;;25.23;12.00;;;-8.70;1.00;;;;;;8247468;28;20194;-82
2024/01/08 04:31:21;;;;;;;30.20;13.40;;;-8.70;1.00;;;;;;8247094;28;20186;-82
2024/01/08 04:35:22;;;;;;;41.37;19.17;;;-8.80;1.00;;;;;;8250447;28;20183;-83
2024/01/08 04:39:23;;;;;;;24.40;12.23;;;-8.80;1.00;;;;;;8248422;28;20211;-83
2024/01/08 04:43:23;;;;;;;47.67;18.90;;;-8.80;1.00;;;;;;8246026;28;20223;-81
2024/01/08 04:47:25;;;;;;;36.37;16.83;;;-8.80;1.00;;;;;;8267723;28;20194;-80
2024/01/08 04:51:25;;;;;;;60.03;25.87;;;-8.80;1.00;;;;;;8255399;28;20195;-80
2024/01/08 04:55:28;;;;;;;60.10;27.77;;;-8.80;1.00;;;;;;8262027;28;20187;-81
2024/01/08 04:59:29;;;;;;;49.97;22.33;;;-8.70;1.00;;;;;;8266408;28;20227;-81
2024/01/08 05:03:33;;;;;;;31.23;15.33;;;-8.70;1.00;;;;;;8258330;28;20199;-82
2024/01/08 05:07:34;;;;;;;30.20;14.60;;;-8.70;1.00;;;;;;8262609;28;20192;-79
2024/01/08 05:11:35;;;;;;;23.53;12.23;;;-8.60;1.00;;;;;;8232154;28;21146;-80
2024/01/08 05:15:38;;;;;;;35.17;16.80;;;-8.60;1.00;;;;;;8233813;28;20469;-79
2024/01/08 05:19:39;;;;;;;27.20;14.13;;;-8.60;1.00;;;;;;8237708;28;20223;-80
2024/01/08 05:23:41;;;;;;;26.70;16.47;;;-8.60;1.00;;;;;;8235179;28;20243;-79
2024/01/08 05:27:42;;;;;;;29.03;13.77;;;-8.70;1.00;;;;;;8238916;28;20203;-79
2024/01/08 05:31:43;;;;;;;42.27;16.13;;;-8.90;1.00;;;;;;8236294;28;20219;-79
2024/01/08 05:35:44;;;;;;;32.20;14.93;;;-9.10;1.00;;;;;;8234337;28;20192;-80
2024/01/08 05:39:48;;;;;;;27.53;12.80;;;-9.00;1.00;;;;;;8231940;28;20230;-79
2024/01/08 05:43:49;;;;;;;26.03;13.03;;;-9.10;1.00;;;;;;8231879;28;20294;-79
2024/01/08 05:47:50;;;;;;;24.97;11.00;;;-9.20;1.00;;;;;;8254869;28;20191;-80
2024/01/08 05:51:51;;;;;;;23.37;12.50;;;-9.30;1.00;;;;;;8257329;28;20184;-80
2024/01/08 05:55:52;;;;;;;24.40;13.23;;;-9.40;1.00;;;;;;8284703;28;20216;-81
2024/01/08 05:59:53;;;;;;;21.57;12.43;;;-9.60;1.00;;;;;;8293950;28;20225;-81
2024/01/08 06:03:54;;;;;;;22.37;11.17;;;-10.00;1.00;;;;;;8297983;28;20287;-79
2024/01/08 06:07:55;;;;;;;28.33;12.40;;;-10.20;1.00;;;;;;8290943;28;20178;-78
2024/01/08 06:11:56;;;;;;;22.23;11.97;;;-10.30;1.00;;;;;;8238793;28;20197;-78
2024/01/08 06:15:58;;;;;;;27.03;12.63;;;-10.30;1.00;;;;;;8241349;28;20236;-79
2024/01/08 06:19:59;;;;;;;21.97;12.37;;;-10.20;1.00;;;;;;8269943;28;20226;-81
2024/01/08 06:24:01;;;;;;;25.70;13.97;;;-10.30;1.00;;;;;;8282819;28;20218;-82
2024/01/08 06:28:29;;;;;;;27.77;12.93;;;-10.30;1.00;;;;;;8273578;28;20181;-82
2024/01/08 06:32:30;;;;;;;56.93;19.80;;;-10.40;1.00;;;;;;8231223;28;20201;-82
2024/01/08 06:36:31;;;;;;;34.73;15.67;;;-10.30;1.00;;;;;;8241565;28;20190;-81
2024/01/08 06:40:48;;;;;;;33.43;14.97;;;-10.10;1.00;;;;;;8283051;28;20242;-82
2024/01/08 06:44:52;;;;;;;26.03;12.97;;;-10.10;1.00;;;;;;8275566;28;20320;-82
2024/01/08 06:48:53;;;;;;;27.13;13.30;;;-10.10;1.00;;;;;;8258996;28;20193;-81
2024/01/08 06:52:54;;;;;;;56.00;22.20;;;-10.10;1.00;;;;;;8267841;28;20275;-81
2024/01/08 06:56:55;;;;;;;48.63;17.47;;;-10.10;1.00;;;;;;8272100;28;20289;-82
2024/01/08 07:00:56;;;;;;;55.93;20.30;;;-10.10;1.00;;;;;;8269877;28;20221;-83
2024/01/08 07:04:57;;;;;;;59.13;20.13;;;-10.00;1.00;;;;;;8269181;28;20217;-81
2024/01/08 07:09:00;;;;;;;32.57;14.63;;;-10.00;1.00;;;;;;8259131;28;20199;-82
2024/01/08 07:13:01;;;;;;;31.63;15.63;;;-10.00;1.00;;;;;;8256705;28;20190;-82
2024/01/08 07:17:05;;;;;;;42.13;17.03;;;-9.90;1.00;;;;;;8257929;28;20214;-82
2024/01/08 07:21:07;;;;;;;46.57;19.90;;;-9.90;1.00;;;;;;8263088;28;20211;-82
2024/01/08 07:25:11;;;;;;;33.30;16.30;;;-9.80;1.00;;;;;;8257676;28;21394;-82
2024/01/08 07:29:15;;;;;;;41.70;21.00;;;-9.80;1.00;;;;;;8275515;28;20187;-82
2024/01/08 07:33:16;;;;;;;29.10;15.90;;;-9.70;1.00;;;;;;8258477;28;20262;-82
2024/01/08 07:37:20;;;;;;;30.50;14.00;;;-9.70;1.00;;;;;;8267773;28;20183;-82
2024/01/08 07:41:27;;;;;;;28.70;13.67;;;-9.80;1.00;;;;;;8253224;28;21757;-82
2024/01/08 07:45:28;;;;;;;24.30;13.83;;;-9.70;1.00;;;;;;8267063;28;20325;-82
2024/01/08 07:49:32;;;;;;;29.50;15.10;;;-9.60;1.00;;;;;;8258625;28;20187;-83
2024/01/08 07:53:33;;;;;;;30.20;15.07;;;-9.70;1.00;;;;;;8272425;28;20286;-83
2024/01/08 07:57:34;;;;;;;30.07;16.27;;;-9.70;1.00;;;;;;8257412;28;20237;-83
2024/01/08 08:01:35;;;;;;;29.77;15.13;;;-9.60;1.00;;;;;;8253322;28;20190;-82
2024/01/08 08:05:36;;;;;;;30.60;13.83;;;-9.60;1.00;;;;;;8240294;28;20210;-82
2024/01/08 08:09:37;;;;;;;26.93;16.00;;;-9.60;1.00;;;;;;8254104;28;20202;-82
2024/01/08 08:13:37;;;;;;;32.73;16.00;;;-9.60;1.00;;;;;;8255290;28;20202;-83
2024/01/08 08:17:41;;;;;;;35.47;18.40;;;-9.60;1.00;;;;;;8256290;28;20551;-82
2024/01/08 08:21:51;;;;;;;35.70;17.63;;;-9.60;1.00;;;;;;8264734;28;20289;-82
2024/01/08 08:25:52;;;;;;;36.83;14.90;;;-9.50;1.00;;;;;;8289290;28;20257;-82
2024/01/08 08:29:55;;;;;;;39.40;14.90;;;-9.50;1.00;;;;;;8291249;28;20192;-83
2024/01/08 08:33:56;;;;;;;29.33;14.20;;;-9.50;1.00;;;;;;8259720;28;20190;-83
2024/01/08 08:37:58;;;;;;;35.03;14.40;;;-9.60;1.00;;;;;;8248843;28;20480;-83
2024/01/08 08:41:58;;;;;;;31.57;14.60;;;-9.60;1.00;;;;;;8250975;28;20187;-84
2024/01/08 08:45:59;;;;;;;29.30;13.80;;;-9.70;1.00;;;;;;8250224;28;20286;-83
2024/01/08 08:50:06;;;;;;;34.20;16.33;;;-9.70;1.00;;;;;;8271724;28;20206;-84
2024/01/08 08:54:07;;;;;;;34.10;15.77;;;-9.70;1.00;;;;;;8252968;28;20191;-83
2024/01/08 08:58:09;;;;;;;83.53;31.43;;;-9.70;1.00;;;;;;8259627;28;20298;-83
2024/01/08 09:02:42;;;;;;;49.57;20.70;;;-9.70;1.00;;;;;;8262445;28;20184;-85
2024/01/08 09:06:43;;;;;;;43.57;17.60;;;-9.70;1.00;;;;;;8264349;28;20211;-84
2024/01/08 09:10:44;;;;;;;26.60;12.60;;;-9.70;1.00;;;;;;8244668;28;20645;-83
2024/01/08 09:14:45;;;;;;;34.20;17.10;;;-9.60;1.00;;;;;;8234112;28;20207;-81
2024/01/08 09:18:46;;;;;;;31.23;13.97;;;-9.40;1.00;;;;;;8244924;28;20238;-82
2024/01/08 09:22:46;;;;;;;38.60;15.87;;;-9.20;1.00;;;;;;8244108;28;20338;-82
2024/01/08 09:26:47;;;;;;;31.87;15.27;;;-8.80;1.00;;;;;;8250441;28;20199;-83
2024/01/08 09:30:50;;;;;;;29.90;13.90;;;-8.70;1.00;;;;;;8268415;28;20557;-84
2024/01/08 09:34:51;;;;;;;35.87;15.27;;;-8.70;1.00;;;;;;8252403;28;20196;-82
2024/01/08 09:38:58;;;;;;;26.70;12.77;;;-9.00;1.00;;;;;;8265260;28;20204;-83
2024/01/08 09:43:04;;;;;;;32.90;14.90;;;-9.10;1.00;;;;;;8241783;28;20342;-82
2024/01/08 09:47:08;;;;;;;35.17;16.73;;;-9.20;1.00;;;;;;8272466;28;20195;-82
2024/01/08 09:51:09;;;;;;;29.53;15.13;;;-9.20;1.00;;;;;;8274443;28;20198;-82
2024/01/08 09:55:11;;;;;;;26.57;14.33;;;-8.80;1.00;;;;;;8262911;28;20345;-82
2024/01/08 09:59:12;;;;;;;23.03;12.63;;;-8.70;1.00;;;;;;8260405;28;20220;-82
2024/01/08 10:03:13;;;;;;;35.90;15.87;;;-8.50;1.00;;;;;;8240758;28;20200;-81
2024/01/08 10:07:14;;;;;;;33.03;14.83;;;-8.40;1.00;;;;;;8259288;28;20196;-82
2024/01/08 10:11:15;;;;;;;25.63;12.77;;;-8.30;1.00;;;;;;8238525;28;20710;-82
2024/01/08 10:15:18;;;;;;;32.40;16.73;;;-8.20;1.00;;;;;;8256619;28;20203;-81
2024/01/08 10:19:23;;;;;;;31.47;17.13;;;-8.10;1.00;;;;;;8259274;28;20219;-81
2024/01/08 10:23:24;;;;;;;33.53;15.20;;;-7.90;1.00;;;;;;8256993;28;20188;-80
2024/01/08 10:27:25;;;;;;;60.37;26.73;;;-7.90;1.00;;;;;;8248952;28;20179;-80
2024/01/08 10:31:26;;;;;;;46.27;19.57;;;-7.90;1.00;;;;;;8257406;28;20184;-81
2024/01/08 10:35:30;;;;;;;29.23;14.00;;;-7.90;1.00;;;;;;8277109;28;20202;-80
2024/01/08 10:39:31;;;;;;;30.27;15.57;;;-7.90;1.00;;;;;;8313314;28;20210;-81
2024/01/08 10:43:32;;;;;;;27.00;13.93;;;-8.10;1.00;;;;;;8299535;28;20175;-81
2024/01/08 10:47:35;;;;;;;29.13;14.97;;;-8.00;1.00;;;;;;8276598;28;20191;-81
2024/01/08 10:51:42;;;;;;;27.97;14.30;;;-7.90;1.00;;;;;;8239993;28;20192;-81
2024/01/08 10:55:43;;;;;;;27.40;12.37;;;-8.00;1.00;;;;;;8243890;28;20192;-81
2024/01/08 10:59:45;;;;;;;26.10;14.07;;;-8.30;1.00;;;;;;8242548;28;20858;-81
2024/01/08 11:03:49;;;;;;;26.37;13.87;;;-8.20;1.00;;;;;;8257126;28;20211;-81
2024/01/08 11:07:51;;;;;;;35.27;16.30;;;-8.00;1.00;;;;;;8242004;28;20187;-81
2024/01/08 11:11:54;;;;;;;32.33;13.70;;;-8.10;1.00;;;;;;8259043;28;20210;-81
2024/01/08 11:15:55;;;;;;;27.63;13.10;;;-8.00;1.00;;;;;;8239416;28;20272;-81
2024/01/08 11:19:57;;;;;;;24.87;13.10;;;-7.80;1.00;;;;;;8251603;28;20745;-81
2024/01/08 11:23:58;;;;;;;25.23;13.47;;;-7.90;1.00;;;;;;8256339;28;20511;-81
2024/01/08 11:27:59;;;;;;;30.03;14.33;;;-7.90;1.00;;;;;;8241200;28;20334;-81
2024/01/08 11:32:30;;;;;;;27.60;14.30;;;-7.90;1.00;;;;;;8230036;28;20235;-81
2024/01/08 11:36:47;;;;;;;34.77;15.60;;;-7.80;1.00;;;;;;8235999;28;20202;-82
2024/01/08 11:40:48;;;;;;;28.47;14.60;;;-7.70;1.00;;;;;;8238792;28;20207;-81
2024/01/08 11:44:49;;;;;;;49.57;21.40;;;-7.50;1.00;;;;;;8236341;28;20191;-81
2024/01/08 11:48:50;;;;;;;38.13;16.30;;;-7.40;1.00;;;;;;8240846;28;20200;-81
2024/01/08 11:52:56;;;;;;;30.53;14.60;;;-7.30;1.00;;;;;;8242042;28;20188;-81
2024/01/08 11:56:57;;;;;;;32.47;13.87;;;-7.10;1.00;;;;;;8255515;28;20263;-82
2024/01/08 12:00:58;;;;;;;31.30;17.90;;;-7.10;1.00;;;;;;8240868;28;20223;-81
2024/01/08 12:05:00;;;;;;;31.67;15.30;;;-7.00;1.00;;;;;;8262744;28;20208;-81
2024/01/08 12:09:01;;;;;;;32.53;17.03;;;-6.90;1.00;;;;;;8260488;28;20188;-81
2024/01/08 12:13:02;;;;;;;34.43;18.37;;;-6.90;1.00;;;;;;8237412;28;20206;-81
2024/01/08 12:17:06;;;;;;;34.30;16.73;;;-6.70;1.00;;;;;;8235462;28;20228;-81
2024/01/08 12:21:07;;;;;;;31.37;15.03;;;-6.70;1.00;;;;;;8254272;28;20235;-82
2024/01/08 12:25:10;;;;;;;35.87;17.40;;;-6.60;1.00;;;;;;8237436;28;20196;-81
2024/01/08 12:29:10;;;;;;;24.83;13.43;;;-6.50;1.00;;;;;;8234207;28;20198;-81
2024/01/08 12:33:12;;;;;;;28.80;14.57;;;-6.50;1.00;;;;;;8251747;28;20184;-82
2024/01/08 12:37:17;;;;;;;25.47;13.43;;;-6.50;1.00;;;;;;8235826;28;20185;-82
2024/01/08 12:41:18;;;;;;;28.87;14.13;;;-6.70;1.00;;;;;;8240093;28;20220;-81
2024/01/08 12:45:19;;;;;;;37.53;19.50;;;-6.60;1.00;;;;;;8234837;28;20185;-81
2024/01/08 12:49:20;;;;;;;29.00;14.00;;;-6.50;1.00;;;;;;8250264;28;20200;-81
2024/01/08 12:53:20;;;;;;;27.13;14.90;;;-6.50;1.00;;;;;;8278713;28;20486;-81
2024/01/08 12:57:27;;;;;;;27.73;14.60;;;-6.50;1.00;;;;;;8290045;28;20200;-81
2024/01/08 13:01:29;;;;;;;24.93;12.50;;;-6.40;1.00;;;;;;8277825;28;20190;-80
2024/01/08 13:05:30;;;;;;;27.03;13.77;;;-6.40;1.00;;;;;;8276287;28;20543;-81
2024/01/08 13:09:31;;;;;;;31.37;16.27;;;-6.50;1.00;;;;;;8283158;28;20204;-81
2024/01/08 13:13:31;;;;;;;27.63;14.80;;;-6.60;1.00;;;;;;8237785;28;20180;-81
2024/01/08 13:17:34;;;;;;;28.90;14.43;;;-6.60;1.00;;;;;;8249852;28;20216;-81
2024/01/08 13:21:41;;;;;;;36.03;18.07;;;-6.50;1.00;;;;;;8250244;28;20199;-81
2024/01/08 13:25:42;;;;;;;32.17;16.03;;;-6.50;1.00;;;;;;8251270;28;20189;-80
2024/01/08 13:29:43;;;;;;;32.13;15.33;;;-6.40;1.00;;;;;;8240317;28;20233;-81
2024/01/08 13:33:44;;;;;;;31.30;14.57;;;-6.50;1.00;;;;;;8241345;28;20199;-81
2024/01/08 13:37:45;;;;;;;30.73;14.07;;;-6.50;1.00;;;;;;8247052;28;20233;-81
2024/01/08 13:41:45;;;;;;;35.80;18.20;;;-6.50;1.00;;;;;;8245296;28;20193;-81
2024/01/08 13:45:46;;;;;;;55.10;22.97;;;-6.50;1.00;;;;;;8245533;28;20739;-81
2024/01/08 13:49:47;;;;;;;31.53;14.60;;;-6.60;1.00;;;;;;8234636;28;20316;-81
2024/01/08 13:53:48;;;;;;;36.93;17.13;;;-6.60;1.00;;;;;;8237750;28;20187;-81
2024/01/08 13:57:49;;;;;;;57.93;23.17;;;-6.70;1.00;;;;;;8233096;28;20212;-81
2024/01/08 14:01:51;;;;;;;50.23;20.13;;;-6.70;1.00;;;;;;8237216;28;20188;-81
2024/01/08 14:05:52;;;;;;;49.67;18.90;;;-6.70;1.00;;;;;;8247720;28;20209;-81
2024/01/08 14:09:53;;;;;;;54.03;22.13;;;-6.70;1.00;;;;;;8250881;28;20199;-81
2024/01/08 14:13:54;;;;;;;46.53;20.07;;;-6.70;1.00;;;;;;8231767;28;20183;-81
2024/01/08 14:17:57;;;;;;;32.13;15.37;;;-6.70;1.00;;;;;;8252123;28;20336;-81
2024/01/08 14:21:57;;;;;;;34.77;15.50;;;-6.80;1.00;;;;;;8240081;28;20176;-81
2024/01/08 14:25:58;;;;;;;46.20;18.77;;;-6.90;1.00;;;;;;8238619;28;20176;-81
2024/01/08 14:29:59;;;;;;;62.83;27.90;;;-7.00;1.00;;;;;;8235508;28;20231;-81
2024/01/08 14:34:03;;;;;;;89.30;35.73;;;-6.90;1.00;;;;;;8230589;28;20188;-80
2024/01/08 14:38:04;;;;;;;45.80;21.37;;;-7.00;1.00;;;;;;8250740;28;20263;-81
2024/01/08 14:42:05;;;;;;;35.93;17.03;;;-7.10;1.00;;;;;;8230676;28;20254;-80
2024/01/08 14:46:07;;;;;;;49.60;21.43;;;-7.10;1.00;;;;;;8246019;28;20489;-80
2024/01/08 14:50:08;;;;;;;53.40;20.83;;;-7.20;1.00;;;;;;8227698;28;20192;-80
2024/01/08 14:54:10;;;;;;;58.70;23.67;;;-7.30;1.00;;;;;;8230266;28;20188;-81
2024/01/08 14:58:11;;;;;;;67.13;25.50;;;-7.40;1.00;;;;;;8233382;28;20369;-81
2024/01/08 15:02:12;;;;;;;68.77;25.83;;;-7.50;1.00;;;;;;8248363;28;20192;-80
2024/01/08 15:06:12;;;;;;;60.50;24.63;;;-7.60;1.00;;;;;;8247656;28;20207;-80
2024/01/08 15:10:13;;;;;;;48.13;20.90;;;-7.70;1.00;;;;;;8233570;28;20201;-80
2024/01/08 15:14:14;;;;;;;59.00;24.33;;;-7.80;1.00;;;;;;8249021;28;20283;-80
2024/01/08 15:18:15;;;;;;;58.33;23.53;;;-7.80;1.00;;;;;;8255491;28;20208;-81
2024/01/08 15:22:16;;;;;;;37.40;17.63;;;-7.90;1.00;;;;;;8265487;28;20435;-81
2024/01/08 15:26:17;;;;;;;61.43;24.50;;;-8.00;1.00;;;;;;8293889;28;20204;-82
2024/01/08 15:30:22;;;;;;;161.60;50.83;;;-8.10;1.00;;;;;;8279915;28;20195;-83
2024/01/08 15:34:23;;;;;;;56.73;24.43;;;-8.20;1.00;;;;;;8278104;28;20227;-81
2024/01/08 15:38:30;;;;;;;97.53;39.27;;;-8.30;1.00;;;;;;8245284;28;20222;-81
2024/01/08 15:42:34;;;;;;;67.33;28.60;;;-8.30;1.00;;;;;;8236631;28;20406;-81
2024/01/08 15:46:42;;;;;;;98.10;42.07;;;-8.40;1.00;;;;;;8237606;28;20286;-81
2024/01/08 15:50:47;;;;;;;61.07;28.67;;;-8.50;1.00;;;;;;8235000;28;20278;-82
2024/01/08 15:54:49;;;;;;;38.50;19.10;;;-8.40;1.00;;;;;;8238093;28;20229;-81
2024/01/08 15:58:49;;;;;;;57.23;24.23;;;-8.50;1.00;;;;;;8246266;28;20216;-81
2024/01/08 16:02:50;;;;;;;60.50;26.30;;;-8.50;1.00;;;;;;8229790;28;20195;-80
2024/01/08 16:06:51;;;;;;;54.03;25.73;;;-8.50;1.00;;;;;;8229589;28;20227;-81
2024/01/08 16:10:52;;;;;;;66.27;27.40;;;-8.60;1.00;;;;;;8245334;28;20195;-81
2024/01/08 16:14:53;;;;;;;64.47;31.17;;;-8.70;1.00;;;;;;8247110;28;20223;-82
2024/01/08 16:18:54;;;;;;;54.60;28.40;;;-8.80;1.00;;;;;;8234384;28;20266;-81
2024/01/08 16:22:58;;;;;;;92.10;36.10;;;-8.90;1.00;;;;;;8245375;28;20188;-82
2024/01/08 16:27:00;;;;;;;73.07;31.90;;;-8.90;1.00;;;;;;8238142;28;20968;-81
2024/01/08 16:31:01;;;;;;;65.47;28.10;;;-9.00;1.00;;;;;;8230449;28;20187;-80
2024/01/08 16:35:04;;;;;;;78.40;34.10;;;-9.00;1.00;;;;;;8210863;28;20224;-81
2024/01/08 16:39:06;;;;;;;59.13;25.73;;;-9.00;1.00;;;;;;8228787;28;20222;-81
2024/01/08 16:43:07;;;;;;;46.53;20.27;;;-9.10;1.00;;;;;;8231301;28;20230;-81
2024/01/08 16:47:08;;;;;;;38.77;19.57;;;-9.10;1.00;;;;;;8243321;28;20482;-81
2024/01/08 16:51:10;;;;;;;36.23;17.43;;;-9.10;1.00;;;;;;8227894;28;20188;-81
2024/01/08 16:55:11;;;;;;;45.73;21.97;;;-9.20;1.00;;;;;;8218415;28;20191;-81
2024/01/08 16:59:11;;;;;;;48.50;22.73;;;-9.20;1.00;;;;;;8244241;28;20230;-80
2024/01/08 17:03:13;;;;;;;62.53;29.67;;;-9.30;1.00;;;;;;8228350;28;20184;-80
2024/01/08 17:07:15;;;;;;;47.23;23.33;;;-9.40;1.00;;;;;;8232540;28;20199;-81
2024/01/08 17:11:16;;;;;;;64.87;28.17;;;-9.50;1.00;;;;;;8251150;28;20306;-80
2024/01/08 17:15:17;;;;;;;54.30;25.10;;;-9.60;1.00;;;;;;8250300;28;20219;-81
2024/01/08 17:19:18;;;;;;;61.53;25.43;;;-9.70;1.00;;;;;;8238893;28;20204;-81
2024/01/08 17:23:19;;;;;;;123.03;40.60;;;-9.80;1.00;;;;;;8235672;28;20215;-80
2024/01/08 17:27:20;;;;;;;191.50;60.07;;;-9.80;1.00;;;;;;8230816;28;20202;-80
2024/01/08 17:31:21;;;;;;;180.53;62.13;;;-9.90;1.00;;;;;;8258039;28;20191;-80
2024/01/08 17:35:22;;;;;;;213.57;70.80;;;-10.00;1.00;;;;;;8251824;28;20191;-81
2024/01/08 17:39:24;;;;;;;159.43;56.37;;;-10.00;1.00;;;;;;8232585;28;20208;-80
2024/01/08 17:43:25;;;;;;;110.80;41.40;;;-10.10;1.00;;;;;;8253423;28;20186;-80
2024/01/08 17:47:26;;;;;;;80.03;31.70;;;-10.30;1.00;;;;;;8233683;28;20188;-81
2024/01/08 17:51:28;;;;;;;63.33;26.00;;;-10.40;1.00;;;;;;8247755;28;20222;-82
2024/01/08 17:55:29;;;;;;;69.27;25.33;;;-10.50;1.00;;;;;;8269308;28;20173;-82
2024/01/08 17:59:33;;;;;;;54.07;22.10;;;-10.60;1.00;;;;;;8279249;28;20214;-82
2024/01/08 18:03:33;;;;;;;55.47;20.00;;;-10.70;1.00;;;;;;8285834;28;20268;-82
2024/01/08 18:07:34;;;;;;;75.03;24.17;;;-10.80;1.00;;;;;;8289996;28;20177;-82
2024/01/08 18:11:35;;;;;;;66.30;24.60;;;-10.90;1.00;;;;;;8259735;28;20191;-80
2024/01/08 18:15:36;;;;;;;59.10;21.57;;;-11.00;1.00;;;;;;8259125;28;20209;-79
2024/01/08 18:19:37;;;;;;;34.57;15.07;;;-11.00;1.00;;;;;;8261964;28;20252;-80
2024/01/08 18:23:39;;;;;;;36.80;12.60;;;-11.10;1.00;;;;;;8261526;28;20187;-80
2024/01/08 18:27:40;;;;;;;26.27;11.77;;;-11.20;1.00;;;;;;8241659;28;20190;-81
2024/01/08 18:31:41;;;;;;;23.57;11.97;;;-11.20;1.00;;;;;;8250770;28;20197;-81
2024/01/08 18:35:51;;;;;;;28.07;12.03;;;-11.30;1.00;;;;;;8233306;28;20196;-81
2024/01/08 18:39:52;;;;;;;25.60;11.33;;;-11.40;1.00;;;;;;8234442;28;20435;-81
2024/01/08 18:43:53;;;;;;;25.97;12.30;;;-11.50;1.00;;;;;;8232730;28;20188;-83
2024/01/08 18:47:54;;;;;;;27.50;12.87;;;-11.50;1.00;;;;;;8247992;28;20252;-81
2024/01/08 18:51:55;;;;;;;31.23;12.47;;;-11.40;1.00;;;;;;8250162;28;20182;-80
2024/01/08 18:55:59;;;;;;;26.47;11.77;;;-11.50;1.00;;;;;;8244322;28;20181;-81
2024/01/08 19:00:04;;;;;;;30.20;12.50;;;-11.50;1.00;;;;;;8250568;28;20205;-79
2024/01/08 19:04:05;;;;;;;33.17;13.97;;;-11.60;1.00;;;;;;8250117;28;20200;-81
2024/01/08 19:08:06;;;;;;;25.47;12.33;;;-11.80;1.00;;;;;;8239755;28;20188;-80
2024/01/08 19:12:08;;;;;;;32.80;13.73;;;-11.80;1.00;;;;;;8246718;28;20191;-80
2024/01/08 19:16:09;;;;;;;23.87;12.57;;;-11.90;1.00;;;;;;8262205;28;20267;-80
2024/01/08 19:20:19;;;;;;;35.27;14.07;;;-11.90;1.00;;;;;;8259298;28;20205;-80
2024/01/08 19:24:24;;;;;;;47.63;16.60;;;-12.00;1.00;;;;;;8245244;28;20468;-80
2024/01/08 19:28:24;;;;;;;38.30;15.03;;;-12.10;1.00;;;;;;8224003;28;20200;-80
2024/01/08 19:32:25;;;;;;;29.47;12.57;;;-12.10;1.00;;;;;;8240542;28;20195;-80
2024/01/08 19:36:29;;;;;;;27.20;12.07;;;-12.10;1.00;;;;;;8260142;28;20187;-80
2024/01/08 19:40:33;;;;;;;29.67;12.23;;;-12.20;1.00;;;;;;8238190;28;20224;-81
2024/01/08 19:44:38;;;;;;;27.40;13.07;;;-12.30;1.00;;;;;;8236602;28;20184;-80
2024/01/08 19:48:42;;;;;;;36.43;14.57;;;-12.30;1.00;;;;;;8247981;28;20201;-79
2024/01/08 19:52:43;;;;;;;36.23;14.77;;;-12.30;1.00;;;;;;8237813;28;20253;-80
2024/01/08 19:56:44;;;;;;;33.67;13.50;;;-12.40;1.00;;;;;;8237652;28;20191;-79
2024/01/08 20:00:45;;;;;;;38.70;15.20;;;-12.40;1.00;;;;;;8234205;28;20207;-80
2024/01/08 20:04:47;;;;;;;29.60;14.83;;;-12.50;1.00;;;;;;8240056;28;20199;-81
2024/01/08 20:08:48;;;;;;;30.03;13.60;;;-12.60;1.00;;;;;;8241728;28;20236;-80
2024/01/08 20:12:49;;;;;;;28.97;12.97;;;-12.60;1.00;;;;;;8239338;28;20219;-78
2024/01/08 20:16:50;;;;;;;28.37;12.17;;;-12.70;1.00;;;;;;8239973;28;20343;-77
2024/01/08 20:20:52;;;;;;;27.47;12.13;;;-12.70;1.00;;;;;;8232928;28;20339;-77
2024/01/08 20:24:53;;;;;;;28.50;12.07;;;-12.70;1.00;;;;;;8251372;28;20192;-80
2024/01/08 20:28:54;;;;;;;30.13;14.13;;;-12.70;1.00;;;;;;8290828;28;20268;-80
2024/01/08 20:32:57;;;;;;;29.17;13.93;;;-12.80;1.00;;;;;;8275026;28;20526;-77
2024/01/08 20:37:00;;;;;;;31.23;15.07;;;-12.80;1.00;;;;;;8272846;28;20180;-81
2024/01/08 20:41:04;;;;;;;26.30;12.23;;;-12.90;1.00;;;;;;8237773;28;20208;-80